Time,TemperatureF,DewpointF,PressureIn,WindDirection,WindDirectionDegrees,WindSpeedMPH,WindSpeedGustMPH,Humidity,HourlyPrecipIn,Conditions,Clouds,dailyrainin,SoftwareType,DateUTC
2013-09-22 00:02:00,-999.0,-99.9,29.60,WNW,283,0.0,0.0,-999,-99.99,,,-99.99,,2013-09-22 04:02:00,
2013-09-22 00:14:00,57.0,56.0,29.60,WNW,283,0.0,0.0,96,0.00,,,0.01,,2013-09-22 04:14:00,
2013-09-22 00:23:00,57.0,56.0,29.60,WNW,283,0.0,0.0,96,0.00,,,0.18,,2013-09-22 04:23:00,
2013-09-22 00:44:00,57.0,56.0,29.60,NE,40,0.0,0.0,96,0.00,,,0.19,,2013-09-22 04:44:00,
2013-09-22 00:54:00,57.0,56.0,29.59,West,266,1.0,3.0,96,0.00,,,0.19,,2013-09-22 04:54:00,
2013-09-22 01:13:00,56.0,55.0,29.59,West,267,0.0,0.0,96,0.00,,,0.20,,2013-09-22 05:13:00,
2013-09-22 01:23:00,56.0,55.0,29.59,North,5,1.0,3.0,96,0.00,,,0.20,,2013-09-22 05:23:00,
2013-09-22 01:53:00,56.0,55.0,29.59,NNW,338,1.0,3.0,96,0.00,,,0.20,,2013-09-22 05:53:00,
2013-09-22 02:22:00,56.0,55.0,29.58,NW,323,0.0,1.0,96,0.00,,,0.20,,2013-09-22 06:22:00,
2013-09-22 02:52:00,56.0,55.0,29.58,SE,140,1.0,2.0,96,0.00,,,0.21,,2013-09-22 06:52:00,
2013-09-22 03:11:00,56.0,55.0,29.57,West,260,3.0,4.0,96,0.00,,,0.21,,2013-09-22 07:11:00,
2013-09-22 03:21:00,56.0,55.0,29.58,NNW,327,2.0,6.0,96,0.00,,,0.24,,2013-09-22 07:21:00,
2013-09-22 03:52:00,55.0,54.0,29.58,NNE,20,1.0,4.0,96,0.00,,,0.24,,2013-09-22 07:52:00,
2013-09-22 04:12:00,55.0,54.0,29.58,NNE,21,0.0,0.0,96,0.00,,,0.24,,2013-09-22 08:12:00,
2013-09-22 04:22:00,54.0,52.0,29.59,SSE,150,5.0,10.0,94,0.00,,,0.24,,2013-09-22 08:22:00,
2013-09-22 04:52:00,52.0,51.0,29.61,NE,55,2.0,5.0,95,0.00,,,0.24,,2013-09-22 08:52:00,
2013-09-22 05:11:00,51.0,49.0,29.61,North,355,3.0,5.0,94,0.00,,,0.24,,2013-09-22 09:11:00,
2013-09-22 05:22:00,51.0,50.0,29.62,West,275,5.0,8.0,95,0.00,,,0.24,,2013-09-22 09:22:00,
2013-09-22 05:53:00,51.0,49.0,29.63,West,280,1.0,2.0,93,0.00,,,0.24,,2013-09-22 09:53:00,
2013-09-22 06:12:00,51.0,49.0,29.63,WNW,290,1.0,3.0,93,0.00,,,0.24,,2013-09-22 10:12:00,
2013-09-22 06:23:00,50.0,48.0,29.63,NW,317,4.0,7.0,93,0.00,,,0.24,,2013-09-22 10:23:00,
2013-09-22 06:44:00,50.0,48.0,29.64,SW,216,2.0,2.0,93,0.00,,,0.24,,2013-09-22 10:44:00,
2013-09-22 06:53:00,50.0,49.0,29.64,NW,317,1.0,3.0,95,0.00,,,0.24,,2013-09-22 10:53:00,
2013-09-22 07:12:00,50.0,49.0,29.65,NNW,329,0.0,2.0,95,0.00,,,0.24,,2013-09-22 11:12:00,
2013-09-22 07:22:00,50.0,48.0,29.65,North,350,2.0,5.0,94,0.00,,,0.24,,2013-09-22 11:22:00,
2013-09-22 07:52:00,50.0,48.0,29.66,NNW,336,2.0,5.0,93,0.00,,,0.24,,2013-09-22 11:52:00,
2013-09-22 08:12:00,50.0,48.0,29.66,North,360,0.0,2.0,93,0.00,,,0.24,,2013-09-22 12:12:00,
2013-09-22 08:22:00,50.0,48.0,29.67,NE,55,2.0,3.0,93,0.00,,,0.24,,2013-09-22 12:22:00,
2013-09-22 08:42:00,51.0,49.0,29.67,ENE,65,1.0,2.0,94,0.00,,,0.24,,2013-09-22 12:42:00,
2013-09-22 08:52:00,50.0,48.0,29.68,NE,38,2.0,5.0,94,0.00,,,0.25,,2013-09-22 12:52:00,
2013-09-22 09:12:00,50.0,48.0,29.70,NE,50,1.0,3.0,94,0.00,,,0.25,,2013-09-22 13:12:00,
2013-09-22 09:22:00,49.0,47.0,29.70,ENE,77,3.0,4.0,94,0.00,,,0.25,,2013-09-22 13:22:00,
2013-09-22 09:42:00,49.0,47.0,29.70,ENE,65,4.0,9.0,94,0.00,,,0.25,,2013-09-22 13:42:00,
2013-09-22 09:52:00,49.0,48.0,29.72,NNE,16,3.0,7.0,95,0.00,,,0.25,,2013-09-22 13:52:00,
2013-09-22 10:11:00,48.0,46.0,29.73,NNE,24,5.0,8.0,94,0.00,,,0.25,,2013-09-22 14:11:00,
2013-09-22 10:22:00,48.0,46.0,29.73,NE,44,2.0,5.0,94,0.00,,,0.25,,2013-09-22 14:22:00,
2013-09-22 10:42:00,48.0,47.0,29.74,NNE,26,2.0,4.0,95,0.00,,,0.25,,2013-09-22 14:42:00,
2013-09-22 10:52:00,47.0,46.0,29.75,SE,132,1.0,3.0,95,0.00,,,0.25,,2013-09-22 14:52:00,
2013-09-22 11:12:00,48.0,47.0,29.75,North,5,2.0,3.0,95,0.00,,,0.25,,2013-09-22 15:12:00,
2013-09-22 11:23:00,48.0,46.0,29.76,East,96,1.0,4.0,93,0.00,,,0.25,,2013-09-22 15:23:00,
2013-09-22 11:44:00,48.0,45.0,29.76,ENE,61,5.0,10.0,91,0.00,,,0.25,,2013-09-22 15:44:00,
2013-09-22 11:55:00,48.0,45.0,29.76,NE,40,1.0,2.0,91,0.00,,,0.25,,2013-09-22 15:55:00,
2013-09-22 12:24:00,48.0,46.0,29.77,North,355,3.0,5.0,94,0.00,,,0.25,,2013-09-22 16:24:00,
2013-09-22 12:54:00,50.0,47.0,29.78,East,86,1.0,2.0,91,0.00,,,0.25,,2013-09-22 16:54:00,
2013-09-22 13:12:00,50.0,47.0,29.78,NNW,347,2.0,3.0,88,0.00,,,-99.99,,2013-09-22 17:12:00,
2013-09-22 13:23:00,50.0,46.0,29.78,East,86,2.0,3.0,85,-99.99,,,0.25,,2013-09-22 17:23:00,
2013-09-22 13:43:00,49.0,45.0,29.79,WNW,300,1.0,2.0,87,0.00,,,0.25,,2013-09-22 17:43:00,
2013-09-22 13:53:00,49.0,45.0,29.79,North,10,4.0,7.0,87,-99.99,,,0.25,,2013-09-22 17:53:00,
2013-09-22 14:13:00,49.0,44.0,29.79,ENE,61,4.0,6.0,84,0.00,,,0.25,,2013-09-22 18:13:00,
2013-09-22 14:22:00,50.0,45.0,29.79,East,94,2.0,2.0,84,0.00,,,0.25,,2013-09-22 18:22:00,
2013-09-22 14:42:00,50.0,46.0,29.80,North,360,2.0,3.0,86,0.00,,,0.25,,2013-09-22 18:42:00,
2013-09-22 14:52:00,50.0,44.0,29.80,North,355,4.0,7.0,79,0.00,,,0.25,,2013-09-22 18:52:00,
2013-09-22 15:11:00,50.0,45.0,29.80,North,355,5.0,8.0,84,0.00,,,0.25,,2013-09-22 19:11:00,
2013-09-22 15:22:00,50.0,44.0,29.80,ENE,72,3.0,4.0,81,0.00,,,0.25,,2013-09-22 19:22:00,
2013-09-22 15:52:00,50.0,44.0,29.81,East,93,0.0,0.0,79,0.00,,,0.25,,2013-09-22 19:52:00,
2013-09-22 16:22:00,50.0,43.0,29.82,East,80,2.0,5.0,78,0.00,,,0.25,,2013-09-22 20:22:00,
2013-09-22 16:42:00,50.0,43.0,29.83,NW,313,1.0,2.0,78,0.00,,,0.25,,2013-09-22 20:42:00,
2013-09-22 16:52:00,49.0,44.0,29.83,SE,127,2.0,3.0,82,0.00,,,0.25,,2013-09-22 20:52:00,
2013-09-22 17:23:00,48.0,45.0,29.83,ESE,104,2.0,4.0,89,0.00,,,0.26,,2013-09-22 21:23:00,
2013-09-22 17:45:00,48.0,45.0,29.84,NW,315,2.0,2.0,89,0.00,,,0.26,,2013-09-22 21:45:00,
2013-09-22 17:54:00,46.0,44.0,29.85,NE,46,4.0,4.0,92,0.00,,,-99.99,,2013-09-22 21:54:00,
2013-09-22 18:14:00,47.0,45.0,29.85,NE,42,1.0,7.0,92,0.00,,,0.27,,2013-09-22 22:14:00,
2013-09-22 18:24:00,46.0,44.0,29.86,NE,46,0.0,1.0,91,0.00,,,0.27,,2013-09-22 22:24:00,
2013-09-22 18:54:00,46.0,44.0,29.87,ESE,109,0.0,1.0,92,0.00,,,0.26,,2013-09-22 22:54:00,
2013-09-22 19:12:00,45.0,43.0,29.87,NE,54,0.0,0.0,93,0.00,,,0.24,,2013-09-22 23:12:00,
2013-09-22 19:22:00,45.0,43.0,29.88,ENE,63,0.0,1.0,93,0.00,,,0.24,,2013-09-22 23:22:00,
2013-09-22 19:52:00,45.0,43.0,29.90,NE,44,0.0,1.0,93,0.00,,,0.24,,2013-09-22 23:52:00,
2013-09-22 20:12:00,45.0,43.0,29.91,NE,43,0.0,0.0,94,0.00,,,0.24,,2013-09-23 00:12:00,
2013-09-22 20:23:00,44.0,42.0,29.91,North,9,0.0,1.0,94,0.00,,,0.24,,2013-09-23 00:23:00,
2013-09-22 20:42:00,44.0,42.0,29.92,North,360,0.0,1.0,93,0.00,,,0.24,,2013-09-23 00:42:00,
2013-09-22 20:53:00,44.0,42.0,29.92,NE,36,0.0,0.0,92,0.00,,,0.24,,2013-09-23 00:53:00,
2013-09-22 21:12:00,44.0,42.0,29.93,East,90,0.0,0.0,91,0.00,,,0.23,,2013-09-23 01:12:00,
2013-09-22 21:22:00,44.0,42.0,29.93,NE,34,2.0,7.0,91,0.00,,,0.23,,2013-09-23 01:22:00,
2013-09-22 21:43:00,44.0,42.0,29.93,NE,54,2.0,4.0,91,0.00,,,0.22,,2013-09-23 01:43:00,
2013-09-22 21:52:00,44.0,42.0,29.94,ENE,67,0.0,0.0,93,0.00,,,0.18,,2013-09-23 01:52:00,
2013-09-22 22:11:00,43.0,41.0,29.94,West,271,0.0,1.0,94,0.00,,,0.19,,2013-09-23 02:11:00,
2013-09-22 22:22:00,43.0,41.0,29.94,NE,35,0.0,0.0,94,0.00,,,0.18,,2013-09-23 02:22:00,
2013-09-22 22:42:00,43.0,42.0,29.95,North,5,0.0,0.0,95,0.00,,,0.17,,2013-09-23 02:42:00,
2013-09-22 22:52:00,43.0,42.0,29.95,North,360,0.0,0.0,95,0.00,,,0.16,,2013-09-23 02:52:00,
2013-09-22 23:12:00,43.0,42.0,29.95,North,355,1.0,2.0,95,0.00,,,0.16,,2013-09-23 03:12:00,
2013-09-22 23:23:00,43.0,42.0,29.96,NE,42,0.0,0.0,95,0.00,,,0.15,,2013-09-23 03:23:00,
2013-09-22 23:54:00,43.0,42.0,29.96,North,360,0.0,1.0,95,0.00,,,0.13,,2013-09-23 03:54:00,